createdAt,value
2024-02-03T00:00:11.181Z,66.41
2024-02-03T00:02:37.714Z,65.78
2024-02-03T00:05:04.366Z,65.70
2024-02-03T00:07:31.425Z,65.82
2024-02-03T00:09:57.945Z,65.68
2024-02-03T00:12:27.441Z,65.87
2024-02-03T00:14:54.236Z,66.04
2024-02-03T00:17:21.030Z,65.66
2024-02-03T00:19:47.896Z,65.69
2024-02-03T00:22:15.146Z,65.61
2024-02-03T00:24:42.249Z,64.97
2024-02-03T00:27:09.024Z,65.23
2024-02-03T00:29:35.823Z,64.82
2024-02-03T00:32:02.490Z,64.93
2024-02-03T00:34:29.125Z,64.56
2024-02-03T00:36:55.691Z,64.94
2024-02-03T00:39:22.311Z,65.00
2024-02-03T00:41:48.948Z,65.31
2024-02-03T00:44:16.685Z,65.61
2024-02-03T00:46:43.400Z,65.78
2024-02-03T00:49:09.982Z,65.85
2024-02-03T00:51:36.645Z,66.18
2024-02-03T00:54:03.135Z,66.18
2024-02-03T00:56:29.922Z,66.11
2024-02-03T00:58:56.564Z,66.55
2024-02-03T01:01:23.075Z,66.79
2024-02-03T01:03:49.890Z,66.69
2024-02-03T01:06:16.585Z,66.96
2024-02-03T01:08:43.179Z,67.28
2024-02-03T01:11:09.822Z,67.71
2024-02-03T01:13:36.404Z,67.54
2024-02-03T01:16:03.327Z,67.43
2024-02-03T01:18:30.106Z,67.51
2024-02-03T01:20:56.797Z,67.17
2024-02-03T01:23:23.310Z,67.12
2024-02-03T01:25:50.796Z,67.25
2024-02-03T01:28:17.437Z,67.19
2024-02-03T01:30:44.124Z,67.01
2024-02-03T01:33:10.996Z,66.95
2024-02-03T01:35:37.711Z,66.92
2024-02-03T01:38:04.196Z,66.69
2024-02-03T01:40:30.807Z,66.97
2024-02-03T01:43:03.805Z,66.94
2024-02-03T01:45:30.594Z,66.73
2024-02-03T01:47:58.014Z,66.31
2024-02-03T01:50:26.869Z,66.60
2024-02-03T01:52:53.992Z,66.55
2024-02-03T01:55:21.036Z,66.00
2024-02-03T01:57:49.632Z,65.94
2024-02-03T02:00:17.154Z,65.23
2024-02-03T02:02:44.045Z,65.15
2024-02-03T02:05:11.061Z,64.65
2024-02-03T02:07:44.893Z,64.29
2024-02-03T02:10:12.602Z,64.63
2024-02-03T02:12:39.998Z,64.43
2024-02-03T02:15:06.932Z,64.23
2024-02-03T02:17:34.623Z,64.04
2024-02-03T02:20:08.364Z,63.72
2024-02-03T02:22:35.737Z,63.72
2024-02-03T02:25:02.533Z,64.29
2024-02-03T02:27:29.090Z,64.15
2024-02-03T02:29:55.595Z,64.49
2024-02-03T02:32:22.218Z,64.54
2024-02-03T02:34:48.837Z,63.79
2024-02-03T02:37:15.575Z,63.34
2024-02-03T02:39:42.304Z,63.63
2024-02-03T02:42:08.998Z,64.01
2024-02-03T02:44:35.540Z,64.07
2024-02-03T02:47:02.346Z,63.44
2024-02-03T02:49:29.057Z,64.42
2024-02-03T02:51:55.728Z,64.27
2024-02-03T02:54:22.257Z,63.63
2024-02-03T02:56:48.737Z,62.81
2024-02-03T02:59:17.589Z,62.75
2024-02-03T03:01:44.345Z,62.90
2024-02-03T03:04:10.968Z,62.41
2024-02-03T03:06:37.620Z,62.76
2024-02-03T03:09:04.362Z,61.99
2024-02-03T03:11:31.000Z,62.95
2024-02-03T03:13:59.529Z,63.39
2024-02-03T03:16:26.175Z,63.21
2024-02-03T03:18:52.821Z,62.92
2024-02-03T03:21:19.583Z,63.22
2024-02-03T03:23:46.311Z,63.26
2024-02-03T03:26:12.906Z,63.70
2024-02-03T03:28:39.466Z,63.25
2024-02-03T03:31:06.033Z,63.76
2024-02-03T03:33:33.042Z,62.70
2024-02-03T03:35:59.648Z,63.01
2024-02-03T03:38:27.804Z,64.57
2024-02-03T03:40:54.719Z,64.84
2024-02-03T03:43:21.249Z,65.29
2024-02-03T03:45:48.649Z,64.40
2024-02-03T03:48:16.658Z,64.49
2024-02-03T03:50:43.554Z,64.29
2024-02-03T03:53:10.132Z,63.73
2024-02-03T03:55:36.598Z,63.89
2024-02-03T03:58:03.106Z,64.04
2024-02-03T04:00:29.974Z,64.77
2024-02-03T04:02:56.597Z,64.96
2024-02-03T04:05:23.051Z,64.90
2024-02-03T04:07:49.567Z,64.48
2024-02-03T04:10:16.139Z,64.81
2024-02-03T04:12:42.705Z,65.01
2024-02-03T04:15:09.505Z,65.17
2024-02-03T04:17:38.090Z,65.17
2024-02-03T04:20:05.577Z,65.53
2024-02-03T04:22:32.587Z,65.68
2024-02-03T04:24:59.259Z,65.46
2024-02-03T04:27:25.690Z,65.83
2024-02-03T04:29:52.283Z,65.71
2024-02-03T04:32:18.846Z,66.13
2024-02-03T04:34:45.617Z,65.95
2024-02-03T04:37:12.228Z,65.55
2024-02-03T04:39:38.813Z,65.60
2024-02-03T04:42:05.551Z,66.07
2024-02-03T04:44:32.034Z,65.64
2024-02-03T04:47:00.050Z,65.71
2024-02-03T04:49:26.724Z,65.01
2024-02-03T04:51:54.368Z,64.94
2024-02-03T04:54:21.171Z,64.77
2024-02-03T04:56:47.630Z,64.85
2024-02-03T04:59:14.089Z,65.75
2024-02-03T05:01:40.679Z,65.53
2024-02-03T05:04:07.439Z,65.96
2024-02-03T05:06:34.274Z,65.32
2024-02-03T05:09:01.740Z,65.45
2024-02-03T05:11:28.631Z,65.76
2024-02-03T05:13:55.351Z,66.27
2024-02-03T05:16:21.900Z,66.95
2024-02-03T05:18:48.687Z,66.71
2024-02-03T05:21:15.717Z,66.93
2024-02-03T05:23:42.348Z,66.81
2024-02-03T05:26:09.832Z,67.01
2024-02-03T05:28:36.466Z,66.70
2024-02-03T05:31:02.980Z,66.53
2024-02-03T05:33:31.758Z,66.71
2024-02-03T05:35:58.579Z,66.01
2024-02-03T05:38:25.114Z,66.66
2024-02-03T05:40:51.938Z,66.86
2024-02-03T05:43:18.590Z,66.91
2024-02-03T05:45:45.045Z,67.09
2024-02-03T05:48:12.842Z,66.86
2024-02-03T05:50:39.719Z,67.35
2024-02-03T05:53:08.715Z,66.85
2024-02-03T05:55:35.598Z,67.22
2024-02-03T05:58:02.042Z,67.34
2024-02-03T06:00:28.666Z,67.43
2024-02-03T06:02:57.561Z,67.66
2024-02-03T06:05:24.159Z,67.15
2024-02-03T06:07:51.008Z,67.21
2024-02-03T06:10:17.915Z,67.11
2024-02-03T06:12:44.685Z,67.56
2024-02-03T06:15:11.611Z,67.30
2024-02-03T06:17:38.248Z,67.86
2024-02-03T06:20:06.219Z,67.41
2024-02-03T06:22:32.915Z,68.08
2024-02-03T06:24:59.468Z,67.63
2024-02-03T06:27:25.993Z,67.96
2024-02-03T06:29:52.594Z,67.92
2024-02-03T06:32:19.610Z,67.69
2024-02-03T06:34:46.262Z,67.76
2024-02-03T06:37:12.834Z,67.52
2024-02-03T06:39:39.474Z,67.39
2024-02-03T06:42:06.294Z,67.19
2024-02-03T06:44:32.962Z,67.34
2024-02-03T06:46:59.456Z,67.33
2024-02-03T06:49:26.257Z,67.38
2024-02-03T06:51:52.968Z,67.21
2024-02-03T06:54:19.424Z,67.42
2024-02-03T06:56:46.309Z,67.90
2024-02-03T06:59:14.020Z,68.50
2024-02-03T07:01:40.687Z,68.19
2024-02-03T07:04:07.483Z,68.19
2024-02-03T07:06:34.341Z,68.13
2024-02-03T07:09:00.855Z,67.82
2024-02-03T07:11:27.376Z,67.69
2024-02-03T07:13:53.842Z,67.57
2024-02-03T07:16:20.418Z,68.04
2024-02-03T07:18:46.980Z,67.55
2024-02-03T07:21:13.597Z,67.14
2024-02-03T07:23:40.093Z,66.62
2024-02-03T07:26:06.662Z,67.17
2024-02-03T07:28:33.079Z,65.85
2024-02-03T07:31:00.011Z,65.47
2024-02-03T07:33:26.778Z,65.07
2024-02-03T07:35:53.658Z,65.15
2024-02-03T07:38:20.213Z,64.79
2024-02-03T07:40:46.696Z,64.86
2024-02-03T07:43:13.235Z,64.73
2024-02-03T07:45:39.786Z,64.47
2024-02-03T07:48:06.834Z,64.11
2024-02-03T07:50:33.478Z,64.20
2024-02-03T07:53:00.021Z,64.18
2024-02-03T07:55:26.501Z,63.84
2024-02-03T07:57:53.050Z,64.50
2024-02-03T08:00:20.201Z,64.92
2024-02-03T08:02:46.704Z,64.57
2024-02-03T08:05:13.314Z,64.22
2024-02-03T08:07:41.353Z,64.81
2024-02-03T08:10:08.459Z,64.75
2024-02-03T08:12:34.956Z,64.60
2024-02-03T08:15:01.578Z,64.04
2024-02-03T08:17:28.279Z,63.86
2024-02-03T08:19:54.966Z,64.56
2024-02-03T08:22:21.565Z,63.25
2024-02-03T08:24:48.033Z,64.34
2024-02-03T08:27:14.643Z,63.51
2024-02-03T08:29:41.130Z,64.61
2024-02-03T08:32:09.015Z,63.11
2024-02-03T08:34:35.643Z,62.94
2024-02-03T08:37:02.311Z,62.46
2024-02-03T08:41:58.480Z,63.22
2024-02-03T08:44:25.032Z,62.20
2024-02-03T08:46:51.506Z,63.08
2024-02-03T08:49:18.213Z,63.08
2024-02-03T08:51:44.925Z,62.91
2024-02-03T08:54:12.655Z,63.83
2024-02-03T08:56:39.249Z,62.88
2024-02-03T08:59:05.709Z,63.71
2024-02-03T09:01:32.306Z,63.53
2024-02-03T09:03:58.944Z,63.59
2024-02-03T09:06:25.676Z,62.96
2024-02-03T09:08:52.585Z,62.66
2024-02-03T09:11:19.876Z,63.37
2024-02-03T09:13:46.553Z,62.86
2024-02-03T09:16:13.030Z,63.75
2024-02-03T09:18:39.609Z,63.64
2024-02-03T09:21:12.254Z,63.07
2024-02-03T09:23:40.919Z,63.44
2024-02-03T09:26:10.152Z,63.97
2024-02-03T09:28:37.307Z,64.19
2024-02-03T09:31:04.842Z,63.73
2024-02-03T09:33:31.644Z,63.68
2024-02-03T09:35:58.308Z,63.46
2024-02-03T09:38:25.163Z,63.05
2024-02-03T09:40:55.313Z,63.46
2024-02-03T09:43:23.757Z,62.70
2024-02-03T09:45:50.570Z,62.78
2024-02-03T09:48:18.101Z,62.33
2024-02-03T09:50:45.048Z,62.49
2024-02-03T09:53:11.697Z,63.01
2024-02-03T09:55:38.228Z,63.38
2024-02-03T09:58:04.986Z,62.74
2024-02-03T10:00:33.137Z,62.85
2024-02-03T10:03:00.062Z,62.90
2024-02-03T10:05:30.798Z,61.84
2024-02-03T10:08:04.422Z,62.51
2024-02-03T10:13:09.681Z,61.81
2024-02-03T10:15:37.484Z,61.81
2024-02-03T10:18:08.305Z,61.89
2024-02-03T10:20:36.038Z,61.52
2024-02-03T10:23:03.275Z,62.06
2024-02-03T10:25:30.623Z,61.89
2024-02-03T10:28:04.909Z,62.46
2024-02-03T10:30:37.479Z,61.77
2024-02-03T10:33:06.046Z,62.48
2024-02-03T10:35:34.677Z,62.01
2024-02-03T10:38:01.616Z,60.99
2024-02-03T10:40:33.253Z,61.26
2024-02-03T10:43:02.687Z,60.83
2024-02-03T10:45:31.870Z,61.62
2024-02-03T10:48:04.796Z,59.97
2024-02-03T10:50:44.765Z,61.00
2024-02-03T10:53:17.221Z,60.62
2024-02-03T10:55:56.098Z,60.21
2024-02-03T10:58:27.849Z,59.91
2024-02-03T11:00:54.660Z,60.59
2024-02-03T11:03:24.400Z,60.07
2024-02-03T11:05:56.947Z,59.59
2024-02-03T11:08:23.928Z,59.74
2024-02-03T11:10:51.624Z,59.70
2024-02-03T11:13:31.510Z,59.30
2024-02-03T11:15:59.847Z,58.77
2024-02-03T11:18:27.731Z,58.55
2024-02-03T11:21:07.599Z,58.33
2024-02-03T11:23:35.438Z,58.74
2024-02-03T11:26:02.536Z,59.06
2024-02-03T11:28:34.091Z,59.91
2024-02-03T11:31:07.490Z,59.75
2024-02-03T11:33:47.666Z,60.13
2024-02-03T11:36:15.003Z,58.87
2024-02-03T11:38:45.958Z,58.82
2024-02-03T11:41:13.042Z,59.16
2024-02-03T11:43:40.004Z,58.42
2024-02-03T11:46:07.120Z,58.63
2024-02-03T11:48:33.980Z,58.70
2024-02-03T11:51:00.675Z,59.26
2024-02-03T11:53:27.437Z,58.17
2024-02-03T11:55:55.534Z,58.42
2024-02-03T11:58:22.329Z,58.70
2024-02-03T12:00:49.284Z,58.96
2024-02-03T12:03:16.479Z,58.78
2024-02-03T12:05:45.259Z,58.55
2024-02-03T12:08:11.980Z,58.41
2024-02-03T12:10:38.690Z,58.35
2024-02-03T12:13:05.697Z,58.65
2024-02-03T12:15:32.705Z,57.80
2024-02-03T12:18:02.530Z,58.23
2024-02-03T12:20:29.537Z,57.78
2024-02-03T12:23:00.404Z,57.44
2024-02-03T12:25:28.701Z,57.48
2024-02-03T12:27:55.420Z,57.98
2024-02-03T12:30:24.037Z,57.50
2024-02-03T12:32:50.895Z,57.46
2024-02-03T12:35:17.640Z,56.71
2024-02-03T12:37:44.368Z,57.12
2024-02-03T12:40:11.124Z,56.95
2024-02-03T12:42:38.503Z,56.76
2024-02-03T12:45:07.145Z,56.97
2024-02-03T12:47:36.994Z,56.91
2024-02-03T12:50:04.396Z,56.51
2024-02-03T12:52:31.130Z,56.78
2024-02-03T12:54:57.867Z,56.82
2024-02-03T12:57:24.667Z,56.76
2024-02-03T12:59:51.381Z,57.21
2024-02-03T13:02:18.272Z,57.80
2024-02-03T13:04:45.047Z,57.39
2024-02-03T13:07:15.479Z,57.62
2024-02-03T13:09:43.772Z,57.50
2024-02-03T13:12:10.594Z,57.41
2024-02-03T13:14:37.376Z,57.03
2024-02-03T13:17:04.297Z,56.43
2024-02-03T13:19:31.263Z,56.43
2024-02-03T13:21:58.095Z,57.32
2024-02-03T13:24:27.010Z,56.70
2024-02-03T13:26:56.139Z,56.92
2024-02-03T13:29:22.865Z,58.02
2024-02-03T13:31:49.342Z,57.73
2024-02-03T13:34:19.391Z,57.42
2024-02-03T13:36:48.181Z,58.27
2024-02-03T13:39:15.201Z,58.22
2024-02-03T13:41:41.869Z,57.56
2024-02-03T13:44:08.383Z,58.17
2024-02-03T13:46:34.817Z,58.44
2024-02-03T13:49:01.983Z,59.09
2024-02-03T13:51:32.563Z,58.05
2024-02-03T13:53:59.338Z,58.87
2024-02-03T13:56:25.984Z,58.85
2024-02-03T13:58:52.588Z,58.50
2024-02-03T14:01:21.426Z,58.53
2024-02-03T14:03:48.547Z,58.20
2024-02-03T14:06:15.414Z,58.30
2024-02-03T14:08:42.023Z,58.75
2024-02-03T14:11:08.435Z,59.25
2024-02-03T14:13:35.008Z,58.51
2024-02-03T14:16:02.055Z,58.76
2024-02-03T14:18:28.891Z,59.05
2024-02-03T14:20:55.468Z,59.10
2024-02-03T14:23:21.881Z,60.61
2024-02-03T14:25:48.419Z,59.60
2024-02-03T14:28:14.808Z,59.67
2024-02-03T14:30:41.371Z,59.76
2024-02-03T14:33:08.214Z,59.63
2024-02-03T14:35:35.020Z,60.45
2024-02-03T14:38:01.696Z,61.03
2024-02-03T14:40:28.186Z,60.56
2024-02-03T14:42:54.901Z,61.09
2024-02-03T14:45:21.443Z,60.55
2024-02-03T14:47:47.881Z,61.19
2024-02-03T14:50:14.558Z,61.37
2024-02-03T14:52:41.454Z,61.16
2024-02-03T14:55:08.584Z,61.58
2024-02-03T14:57:35.138Z,61.43
2024-02-03T15:00:01.725Z,61.84
2024-02-03T15:02:28.419Z,61.47
2024-02-03T15:04:54.914Z,61.58
2024-02-03T15:07:21.526Z,61.45
2024-02-03T15:09:48.315Z,61.34
2024-02-03T15:12:15.113Z,60.66
2024-02-03T15:14:41.626Z,60.63
2024-02-03T15:17:08.387Z,60.69
2024-02-03T15:19:35.890Z,60.71
2024-02-03T15:22:02.752Z,60.69
2024-02-03T15:24:29.474Z,60.70
2024-02-03T15:26:56.099Z,61.76
2024-02-03T15:29:22.616Z,61.48
2024-02-03T15:31:49.219Z,61.67
2024-02-03T15:34:15.922Z,61.63
2024-02-03T15:36:42.970Z,62.23
2024-02-03T15:39:09.788Z,62.82
2024-02-03T15:41:37.863Z,62.41
2024-02-03T15:44:05.145Z,61.59
2024-02-03T15:46:39.833Z,62.34
2024-02-03T15:49:11.783Z,61.85
2024-02-03T15:51:40.626Z,62.39
2024-02-03T15:54:07.591Z,62.04
2024-02-03T15:56:35.080Z,62.50
2024-02-03T15:59:01.882Z,62.39
2024-02-03T16:01:29.285Z,61.75
2024-02-03T16:03:57.425Z,62.53
2024-02-03T16:06:24.282Z,63.41
2024-02-03T16:08:51.125Z,63.49
2024-02-03T16:11:18.030Z,62.97
2024-02-03T16:13:44.680Z,63.08
2024-02-03T16:16:13.176Z,62.74
2024-02-03T16:18:40.135Z,62.13
2024-02-03T16:21:06.845Z,63.01
2024-02-03T16:23:33.299Z,63.42
2024-02-03T16:26:03.649Z,63.26
2024-02-03T16:28:32.161Z,62.76
2024-02-03T16:30:58.997Z,62.63
2024-02-03T16:33:28.775Z,62.77
2024-02-03T16:35:56.795Z,62.80
2024-02-03T16:38:23.474Z,63.59
2024-02-03T16:40:50.122Z,63.60
2024-02-03T16:43:19.362Z,63.03
2024-02-03T16:45:45.987Z,63.67
2024-02-03T16:48:12.810Z,63.38
2024-02-03T16:50:39.654Z,64.09
2024-02-03T16:53:06.316Z,63.13
2024-02-03T16:55:32.877Z,64.04
2024-02-03T16:57:59.603Z,64.25
2024-02-03T17:00:26.437Z,63.59
2024-02-03T17:02:53.208Z,64.10
2024-02-03T17:05:20.025Z,63.83
2024-02-03T17:07:46.775Z,63.93
2024-02-03T17:10:20.799Z,63.45
2024-02-03T17:12:47.565Z,63.83
2024-02-03T17:15:15.984Z,63.35
2024-02-03T17:17:45.628Z,63.35
2024-02-03T17:20:13.111Z,64.09
2024-02-03T17:22:39.921Z,63.23
2024-02-03T17:25:06.878Z,63.03
2024-02-03T17:27:33.618Z,63.20
2024-02-03T17:30:00.307Z,63.51
2024-02-03T17:32:27.508Z,63.35
2024-02-03T17:34:54.362Z,63.52
2024-02-03T17:37:21.107Z,63.72
2024-02-03T17:39:47.885Z,63.62
2024-02-03T17:42:14.544Z,63.53
2024-02-03T17:44:41.243Z,62.91
2024-02-03T17:47:10.677Z,63.48
2024-02-03T17:49:39.368Z,63.76
2024-02-03T17:52:12.572Z,64.74
2024-02-03T17:54:39.851Z,64.41
2024-02-03T17:57:06.854Z,63.98
2024-02-03T17:59:40.396Z,64.29
2024-02-03T18:02:09.282Z,64.55
2024-02-03T18:04:35.999Z,64.76
2024-02-03T18:07:02.839Z,64.78
2024-02-03T18:09:29.622Z,64.83
2024-02-03T18:11:56.308Z,64.37
2024-02-03T18:14:25.420Z,64.88
2024-02-03T18:16:53.012Z,64.71
2024-02-03T18:19:21.726Z,64.91
2024-02-03T18:21:48.599Z,64.57
2024-02-03T18:24:18.372Z,64.74
2024-02-03T18:26:58.761Z,63.87
2024-02-03T18:29:28.332Z,63.85
2024-02-03T18:31:55.525Z,64.51
2024-02-03T18:34:31.017Z,64.25
2024-02-03T18:36:58.856Z,64.30
2024-02-03T18:39:26.038Z,63.92
2024-02-03T18:41:53.168Z,62.65
2024-02-03T18:44:19.711Z,63.11
2024-02-03T18:46:49.581Z,62.87
2024-02-03T18:49:16.315Z,62.85
2024-02-03T18:51:43.053Z,62.67
2024-02-03T18:54:09.961Z,63.48
2024-02-03T18:56:36.458Z,62.54
2024-02-03T18:59:02.901Z,62.39
2024-02-03T19:01:29.564Z,62.44
2024-02-03T19:03:59.688Z,62.58
2024-02-03T19:06:29.872Z,63.21
2024-02-03T19:08:57.732Z,63.06
2024-02-03T19:11:24.527Z,64.04
2024-02-03T19:13:52.634Z,64.08
2024-02-03T19:16:21.608Z,63.45
2024-02-03T19:18:48.445Z,62.85
2024-02-03T19:21:15.045Z,63.96
2024-02-03T19:23:42.069Z,63.55
2024-02-03T19:26:09.718Z,63.49
2024-02-03T19:28:36.342Z,63.88
2024-02-03T19:31:05.506Z,63.81
2024-02-03T19:33:32.101Z,63.95
2024-02-03T19:35:58.708Z,64.76
2024-02-03T19:38:25.251Z,65.02
2024-02-03T19:40:53.197Z,64.62
2024-02-03T19:43:19.751Z,64.23
2024-02-03T19:45:46.256Z,64.92
2024-02-03T19:48:13.423Z,65.45
2024-02-03T19:50:40.280Z,65.01
2024-02-03T19:53:07.372Z,65.47
2024-02-03T19:55:34.238Z,64.20
2024-02-03T19:58:01.663Z,64.06
2024-02-03T20:00:28.940Z,64.40
2024-02-03T20:02:55.686Z,63.92
2024-02-03T20:05:22.393Z,64.36
2024-02-03T20:07:49.203Z,64.12
2024-02-03T20:10:17.272Z,64.26
2024-02-03T20:12:43.932Z,64.29
2024-02-03T20:15:12.607Z,64.82
2024-02-03T20:17:41.270Z,64.52
2024-02-03T20:20:08.408Z,65.26
2024-02-03T20:22:35.329Z,65.14
2024-02-03T20:25:02.290Z,66.17
2024-02-03T20:27:29.466Z,64.97
2024-02-03T20:29:56.144Z,65.80
2024-02-03T20:32:22.843Z,65.33
2024-02-03T20:34:49.439Z,64.43
2024-02-03T20:37:17.086Z,65.70
2024-02-03T20:39:44.278Z,64.95
2024-02-03T20:42:10.976Z,64.42
2024-02-03T20:44:37.420Z,64.96
2024-02-03T20:47:06.225Z,64.76
2024-02-03T20:49:33.127Z,65.53
2024-02-03T20:52:00.473Z,64.81
2024-02-03T20:54:27.167Z,64.36
2024-02-03T20:56:53.675Z,64.93
2024-02-03T20:59:20.296Z,65.27
2024-02-03T21:01:46.981Z,65.43
2024-02-03T21:04:14.132Z,65.82
2024-02-03T21:06:41.349Z,65.19
2024-02-03T21:09:15.545Z,64.15
2024-02-03T21:11:46.602Z,64.57
2024-02-03T21:14:15.016Z,65.32
2024-02-03T21:16:41.941Z,66.21
2024-02-03T21:19:08.743Z,65.44
2024-02-03T21:21:37.916Z,64.97
2024-02-03T21:24:05.558Z,63.54
2024-02-03T21:26:32.848Z,63.80
2024-02-03T21:28:59.707Z,63.00
2024-02-03T21:31:27.116Z,63.01
2024-02-03T21:33:54.240Z,62.73
2024-02-03T21:36:21.486Z,62.11
2024-02-03T21:38:49.238Z,63.60
2024-02-03T21:41:16.454Z,63.18
2024-02-03T21:43:43.012Z,63.03
2024-02-03T21:46:09.442Z,64.07
2024-02-03T21:48:36.171Z,64.55
2024-02-03T21:51:02.846Z,64.58
2024-02-03T21:53:29.428Z,64.05
2024-02-03T21:55:57.209Z,63.37
2024-02-03T21:58:24.400Z,64.08
2024-02-03T22:00:52.456Z,64.19
2024-02-03T22:03:19.453Z,63.51
2024-02-03T22:05:46.322Z,63.57
2024-02-03T22:08:13.666Z,64.85
2024-02-03T22:10:40.286Z,64.36
2024-02-03T22:13:07.295Z,63.78
2024-02-03T22:15:33.974Z,63.52
2024-02-03T22:18:01.215Z,64.50
2024-02-03T22:20:27.946Z,64.40
2024-02-03T22:22:54.478Z,64.53
2024-02-03T22:25:20.871Z,63.94
2024-02-03T22:27:47.448Z,65.11
2024-02-03T22:30:15.396Z,65.36
2024-02-03T22:32:42.492Z,66.08
2024-02-03T22:35:10.235Z,66.29
2024-02-03T22:37:37.554Z,65.87
2024-02-03T22:40:05.540Z,65.11
2024-02-03T22:42:32.441Z,65.50
2024-02-03T22:44:58.941Z,65.39
2024-02-03T22:47:25.544Z,66.37
2024-02-03T22:49:52.189Z,66.22
2024-02-03T22:52:18.863Z,65.62
2024-02-03T22:54:45.386Z,66.68
2024-02-03T22:57:11.942Z,67.58
2024-02-03T22:59:38.463Z,67.04
2024-02-03T23:02:06.057Z,67.15
2024-02-03T23:04:32.714Z,66.46
2024-02-03T23:06:59.367Z,66.64
2024-02-03T23:09:25.898Z,66.28
2024-02-03T23:11:52.853Z,67.05
2024-02-03T23:14:19.496Z,66.66
2024-02-03T23:16:46.029Z,66.00
2024-02-03T23:19:12.661Z,66.08
2024-02-03T23:21:40.752Z,66.00
2024-02-03T23:24:08.001Z,66.60
2024-02-03T23:26:34.617Z,66.13
2024-02-03T23:29:01.192Z,66.62
2024-02-03T23:31:27.856Z,66.47
2024-02-03T23:33:55.843Z,65.51
2024-02-03T23:36:24.198Z,65.52
2024-02-03T23:38:50.652Z,65.77
2024-02-03T23:41:17.160Z,65.44
2024-02-03T23:43:44.379Z,64.29
2024-02-03T23:46:11.201Z,64.61
2024-02-03T23:48:37.828Z,64.66
2024-02-03T23:51:04.319Z,64.52
2024-02-03T23:53:30.893Z,63.90
2024-02-03T23:55:57.658Z,64.15
2024-02-03T23:58:24.219Z,64.10
